createdAt,value
2024-04-08T00:00:14.928Z,98621.91
2024-04-08T00:01:44.838Z,98616.40
2024-04-08T00:02:50.526Z,98613.95
2024-04-08T00:03:52.115Z,98615.69
2024-04-08T00:04:53.710Z,98612.08
2024-04-08T00:05:56.067Z,98613.80
2024-04-08T00:06:57.674Z,98613.52
2024-04-08T00:07:59.311Z,98613.23
2024-04-08T00:09:00.798Z,98612.31
2024-04-08T00:10:03.578Z,98598.24
2024-04-08T00:11:06.761Z,98608.27
2024-04-08T00:12:08.780Z,98605.96
2024-04-08T00:13:10.293Z,98607.27
2024-04-08T00:14:11.790Z,98604.92
2024-04-08T00:15:14.881Z,98604.95
2024-04-08T00:16:16.390Z,98597.30
2024-04-08T00:17:17.995Z,98594.95
2024-04-08T00:18:19.519Z,98598.83
2024-04-08T00:19:20.987Z,98598.59
2024-04-08T00:20:22.571Z,98594.29
2024-04-08T00:21:24.093Z,98596.40
2024-04-08T00:22:25.866Z,98595.08
2024-04-08T00:23:27.397Z,98597.56
2024-04-08T00:24:28.914Z,98595.62
2024-04-08T00:25:30.403Z,98599.23
2024-04-08T00:26:31.928Z,98599.79
2024-04-08T00:27:33.520Z,98598.66
2024-04-08T00:28:37.964Z,98600.50
2024-04-08T00:29:39.526Z,98599.33
2024-04-08T00:30:41.345Z,98600.09
2024-04-08T00:31:42.831Z,98600.09
2024-04-08T00:32:44.573Z,98597.92
2024-04-08T00:33:46.146Z,98595.33
2024-04-08T00:34:47.799Z,98591.66
2024-04-08T00:35:49.283Z,98593.77
2024-04-08T00:36:50.966Z,98597.83
2024-04-08T00:37:52.586Z,98594.23
2024-04-08T00:38:54.092Z,98595.49
2024-04-08T00:39:56.259Z,98598.05
2024-04-08T00:41:04.018Z,98599.42
2024-04-08T00:42:05.726Z,98602.60
2024-04-08T00:43:08.517Z,98598.04
2024-04-08T00:44:10.241Z,98595.34
2024-04-08T00:45:11.900Z,98599.02
2024-04-08T00:46:23.764Z,98598.80
2024-04-08T00:47:25.506Z,98597.13
2024-04-08T00:48:27.181Z,98591.92
2024-04-08T00:49:31.148Z,98592.02
2024-04-08T00:50:35.302Z,98590.85
2024-04-08T00:51:36.866Z,98590.75
2024-04-08T00:52:38.979Z,98587.54
2024-04-08T00:53:41.807Z,98587.91
2024-04-08T00:54:46.103Z,98587.20
2024-04-08T00:55:49.889Z,98588.71
2024-04-08T00:56:54.119Z,98589.64
2024-04-08T00:57:57.293Z,98592.75
2024-04-08T00:58:59.055Z,98592.96
2024-04-08T01:00:00.661Z,98593.28
2024-04-08T01:01:02.459Z,98591.77
2024-04-08T01:02:07.062Z,98596.71
2024-04-08T01:03:11.029Z,98595.57
2024-04-08T01:04:13.330Z,98595.23
2024-04-08T01:05:16.385Z,98595.88
2024-04-08T01:06:17.915Z,98590.80
2024-04-08T01:07:19.464Z,98597.12
2024-04-08T01:08:21.026Z,98597.40
2024-04-08T01:09:22.745Z,98600.92
2024-04-08T01:10:24.530Z,98599.51
2024-04-08T01:11:26.079Z,98595.95
2024-04-08T01:12:28.125Z,98599.11
2024-04-08T01:13:29.883Z,98597.44
2024-04-08T01:14:32.001Z,98598.05
2024-04-08T01:15:34.204Z,98594.60
2024-04-08T01:16:36.554Z,98592.55
2024-04-08T01:17:39.296Z,98591.46
2024-04-08T01:18:41.259Z,98587.98
2024-04-08T01:19:45.242Z,98590.17
2024-04-08T01:20:46.808Z,98588.78
2024-04-08T01:21:48.322Z,98586.37
2024-04-08T01:22:54.649Z,98588.05
2024-04-08T01:23:57.158Z,98587.25
2024-04-08T01:24:59.654Z,98586.71
2024-04-08T01:26:01.537Z,98584.06
2024-04-08T01:27:03.235Z,98586.77
2024-04-08T01:28:05.288Z,98587.21
2024-04-08T01:29:07.242Z,98584.46
2024-04-08T01:30:09.426Z,98585.54
2024-04-08T01:31:11.024Z,98581.59
2024-04-08T01:32:12.800Z,98582.15
2024-04-08T01:33:14.365Z,98583.14
2024-04-08T01:34:15.907Z,98584.81
2024-04-08T01:35:17.603Z,98583.23
2024-04-08T01:36:19.512Z,98583.60
2024-04-08T01:37:21.087Z,98583.96
2024-04-08T01:38:22.586Z,98581.99
2024-04-08T01:39:24.798Z,98581.05
2024-04-08T01:40:26.414Z,98582.79
2024-04-08T01:41:28.039Z,98581.31
2024-04-08T01:42:29.538Z,98582.44
2024-04-08T01:43:31.382Z,98581.15
2024-04-08T01:44:32.880Z,98581.05
2024-04-08T01:45:34.486Z,98580.77
2024-04-08T01:46:36.068Z,98585.77
2024-04-08T01:47:37.850Z,98588.38
2024-04-08T01:48:39.448Z,98577.05
2024-04-08T01:49:40.937Z,98590.84
2024-04-08T01:50:42.861Z,98597.70
2024-04-08T01:51:44.518Z,98594.98
2024-04-08T01:52:45.980Z,98593.55
2024-04-08T01:53:47.562Z,98594.55
2024-04-08T01:54:49.116Z,98590.80
2024-04-08T01:55:50.685Z,98581.00
2024-04-08T01:56:52.216Z,98588.04
2024-04-08T01:57:54.074Z,98586.13
2024-04-08T01:58:55.674Z,98585.13
2024-04-08T01:59:57.203Z,98583.43
2024-04-08T02:00:58.718Z,98578.16
2024-04-08T02:02:00.334Z,98577.33
2024-04-08T02:03:02.002Z,98575.30
2024-04-08T02:04:03.747Z,98574.15
2024-04-08T02:05:05.361Z,98574.27
2024-04-08T02:06:07.020Z,98573.98
2024-04-08T02:07:08.753Z,98573.92
2024-04-08T02:08:10.245Z,98569.75
2024-04-08T02:09:11.764Z,98569.31
2024-04-08T02:10:13.292Z,98569.15
2024-04-08T02:11:14.875Z,98572.52
2024-04-08T02:12:16.746Z,98567.08
2024-04-08T02:13:18.510Z,98564.95
2024-04-08T02:14:20.011Z,98561.00
2024-04-08T02:15:21.651Z,98565.95
2024-04-08T02:16:23.215Z,98559.43
2024-04-08T02:17:24.877Z,98560.40
2024-04-08T02:18:26.396Z,98565.92
2024-04-08T02:19:28.103Z,98564.12
2024-04-08T02:20:29.618Z,98558.96
2024-04-08T02:21:31.169Z,98560.65
2024-04-08T02:22:33.441Z,98560.95
2024-04-08T02:23:34.987Z,98560.11
2024-04-08T02:24:36.477Z,98559.20
2024-04-08T02:25:40.316Z,98561.52
2024-04-08T02:26:42.683Z,98562.67
2024-04-08T02:27:44.594Z,98559.20
2024-04-08T02:28:46.078Z,98556.38
2024-04-08T02:29:47.602Z,98555.48
2024-04-08T02:30:49.176Z,98554.73
2024-04-08T02:31:50.812Z,98555.42
2024-04-08T02:32:52.578Z,98553.11
2024-04-08T02:33:54.464Z,98549.59
2024-04-08T02:34:56.061Z,98548.23
2024-04-08T02:36:07.026Z,98546.58
2024-04-08T02:37:08.821Z,98538.96
2024-04-08T02:38:10.336Z,98546.91
2024-04-08T02:39:12.513Z,98547.49
2024-04-08T02:40:14.116Z,98544.09
2024-04-08T02:41:15.882Z,98544.52
2024-04-08T02:42:17.465Z,98544.27
2024-04-08T02:43:19.171Z,98542.98
2024-04-08T02:44:21.682Z,98542.30
2024-04-08T02:45:23.277Z,98547.86
2024-04-08T02:46:24.837Z,98551.39
2024-04-08T02:47:26.405Z,98550.88
2024-04-08T02:48:27.896Z,98544.67
2024-04-08T02:49:29.514Z,98546.30
2024-04-08T02:50:31.022Z,98549.52
2024-04-08T02:51:32.596Z,98539.76
2024-04-08T02:52:34.156Z,98549.25
2024-04-08T02:53:35.727Z,98541.20
2024-04-08T02:54:37.280Z,98540.01
2024-04-08T02:55:38.889Z,98537.95
2024-04-08T02:56:40.507Z,98537.96
2024-04-08T02:57:42.447Z,98536.21
2024-04-08T02:58:48.256Z,98539.44
2024-04-08T02:59:49.831Z,98540.44
2024-04-08T03:00:52.014Z,98543.66
2024-04-08T03:01:53.539Z,98546.78
2024-04-08T03:02:55.387Z,98547.64
2024-04-08T03:03:56.926Z,98535.66
2024-04-08T03:04:58.616Z,98537.84
2024-04-08T03:06:11.104Z,98550.56
2024-04-08T03:07:12.662Z,98544.09
2024-04-08T03:08:14.240Z,98544.69
2024-04-08T03:09:15.724Z,98543.54
2024-04-08T03:10:17.329Z,98542.79
2024-04-08T03:11:18.832Z,98540.43
2024-04-08T03:12:20.481Z,98541.07
2024-04-08T03:13:23.826Z,98539.08
2024-04-08T03:14:25.514Z,98537.79
2024-04-08T03:15:27.230Z,98540.67
2024-04-08T03:16:29.045Z,98536.52
2024-04-08T03:17:30.642Z,98537.91
2024-04-08T03:18:32.499Z,98535.70
2024-04-08T03:19:33.991Z,98537.00
2024-04-08T03:20:35.660Z,98534.75
2024-04-08T03:21:37.186Z,98532.62
2024-04-08T03:22:38.657Z,98533.47
2024-04-08T03:23:40.252Z,98532.01
2024-04-08T03:24:42.073Z,98532.78
2024-04-08T03:25:43.602Z,98534.42
2024-04-08T03:26:45.272Z,98534.31
2024-04-08T03:27:46.801Z,98531.96
2024-04-08T03:28:48.385Z,98530.42
2024-04-08T03:29:53.029Z,98531.64
2024-04-08T03:30:56.876Z,98532.14
2024-04-08T03:31:58.383Z,98530.52
2024-04-08T03:32:59.995Z,98532.25
2024-04-08T03:34:01.628Z,98533.77
2024-04-08T03:35:03.598Z,98532.29
2024-04-08T03:36:09.986Z,98534.89
2024-04-08T03:37:11.779Z,98536.57
2024-04-08T03:38:13.900Z,98536.56
2024-04-08T03:39:15.614Z,98543.14
2024-04-08T03:40:17.210Z,98541.98
2024-04-08T03:41:18.699Z,98542.63
2024-04-08T03:42:21.852Z,98539.77
2024-04-08T03:43:23.372Z,98541.98
2024-04-08T03:44:24.995Z,98543.36
2024-04-08T03:45:26.478Z,98545.15
2024-04-08T03:46:28.218Z,98545.81
2024-04-08T03:47:29.730Z,98548.83
2024-04-08T03:48:31.529Z,98548.01
2024-04-08T03:49:33.681Z,98552.04
2024-04-08T03:50:35.191Z,98547.52
2024-04-08T03:51:36.814Z,98549.64
2024-04-08T03:52:38.356Z,98544.87
2024-04-08T03:53:40.622Z,98547.57
2024-04-08T03:54:42.508Z,98546.73
2024-04-08T03:55:45.645Z,98548.32
2024-04-08T03:56:47.564Z,98546.55
2024-04-08T03:57:49.150Z,98550.64
2024-04-08T03:58:50.697Z,98551.10
2024-04-08T03:59:53.287Z,98548.65
2024-04-08T04:00:55.031Z,98547.83
2024-04-08T04:01:56.597Z,98552.57
2024-04-08T04:02:58.155Z,98549.52
2024-04-08T04:04:00.824Z,98547.48
2024-04-08T04:05:03.092Z,98545.98
2024-04-08T04:06:05.520Z,98545.95
2024-04-08T04:07:07.011Z,98546.29
2024-04-08T04:08:08.791Z,98544.98
2024-04-08T04:09:11.417Z,98543.52
2024-04-08T04:10:13.082Z,98545.37
2024-04-08T04:11:14.737Z,98544.44
2024-04-08T04:12:16.240Z,98546.80
2024-04-08T04:13:17.966Z,98548.31
2024-04-08T04:14:19.515Z,98548.07
2024-04-08T04:15:21.429Z,98546.86
2024-04-08T04:16:23.766Z,98547.70
2024-04-08T04:17:25.292Z,98543.33
2024-04-08T04:18:26.796Z,98544.05
2024-04-08T04:19:28.284Z,98549.42
2024-04-08T04:20:46.402Z,98542.19
2024-04-08T04:21:48.021Z,98542.58
2024-04-08T04:22:49.498Z,98539.74
2024-04-08T04:23:51.271Z,98539.31
2024-04-08T04:24:52.861Z,98541.61
2024-04-08T04:25:59.196Z,98525.52
2024-04-08T04:27:00.936Z,98536.89
2024-04-08T04:28:02.806Z,98540.66
2024-04-08T04:29:04.287Z,98538.52
2024-04-08T04:30:06.369Z,98542.98
2024-04-08T04:31:07.970Z,98536.85
2024-04-08T04:32:09.653Z,98536.34
2024-04-08T04:33:12.486Z,98536.89
2024-04-08T04:34:14.161Z,98536.09
2024-04-08T04:35:16.462Z,98536.63
2024-04-08T04:36:18.007Z,98534.32
2024-04-08T04:37:19.809Z,98537.98
2024-04-08T04:38:21.413Z,98539.55
2024-04-08T04:39:22.915Z,98536.38
2024-04-08T04:40:24.437Z,98530.70
2024-04-08T04:41:26.459Z,98533.69
2024-04-08T04:42:27.947Z,98533.86
2024-04-08T04:43:30.686Z,98536.35
2024-04-08T04:44:32.207Z,98539.34
2024-04-08T04:45:34.014Z,98539.13
2024-04-08T04:46:35.588Z,98537.95
2024-04-08T04:47:37.491Z,98537.13
2024-04-08T04:48:39.023Z,98541.48
2024-04-08T04:49:40.519Z,98536.27
2024-04-08T04:50:42.234Z,98539.92
2024-04-08T04:51:44.098Z,98538.79
2024-04-08T04:52:45.843Z,98543.76
2024-04-08T04:53:47.395Z,98540.66
2024-04-08T04:54:48.997Z,98541.91
2024-04-08T04:55:52.582Z,98539.33
2024-04-08T04:56:54.193Z,98533.04
2024-04-08T04:57:56.172Z,98540.39
2024-04-08T04:58:57.767Z,98541.58
2024-04-08T04:59:59.284Z,98537.61
2024-04-08T05:01:00.795Z,98540.42
2024-04-08T05:02:02.719Z,98538.86
2024-04-08T05:03:04.748Z,98538.01
2024-04-08T05:04:06.676Z,98540.24
2024-04-08T05:05:09.538Z,98541.62
2024-04-08T05:06:11.054Z,98541.95
2024-04-08T05:07:12.614Z,98545.39
2024-04-08T05:08:14.098Z,98546.98
2024-04-08T05:09:15.639Z,98541.04
2024-04-08T05:10:18.314Z,98544.19
2024-04-08T05:11:19.851Z,98538.84
2024-04-08T05:12:21.386Z,98542.13
2024-04-08T05:13:22.902Z,98540.67
2024-04-08T05:14:24.740Z,98538.99
2024-04-08T05:15:27.047Z,98544.77
2024-04-08T05:16:28.543Z,98545.63
2024-04-08T05:17:30.273Z,98544.81
2024-04-08T05:18:32.862Z,98544.11
2024-04-08T05:19:34.377Z,98541.92
2024-04-08T05:20:36.017Z,98543.20
2024-04-08T05:21:37.832Z,98545.49
2024-04-08T05:22:44.970Z,98547.59
2024-04-08T05:23:46.470Z,98546.15
2024-04-08T05:24:48.016Z,98546.09
2024-04-08T05:25:50.134Z,98548.16
2024-04-08T05:26:51.708Z,98547.73
2024-04-08T05:27:53.274Z,98542.02
2024-04-08T05:28:55.161Z,98541.88
2024-04-08T05:29:56.906Z,98545.58
2024-04-08T05:30:58.456Z,98541.57
2024-04-08T05:32:00.064Z,98541.38
2024-04-08T05:33:02.407Z,98545.23
2024-04-08T05:34:04.088Z,98541.95
2024-04-08T05:35:05.824Z,98534.02
2024-04-08T05:36:07.340Z,98542.95
2024-04-08T05:37:09.244Z,98543.49
2024-04-08T05:38:11.686Z,98542.94
2024-04-08T05:39:13.299Z,98546.41
2024-04-08T05:40:17.380Z,98547.29
2024-04-08T05:41:19.776Z,98545.35
2024-04-08T05:42:21.314Z,98548.05
2024-04-08T05:43:22.984Z,98544.34
2024-04-08T05:44:24.702Z,98544.79
2024-04-08T05:45:26.180Z,98545.67
2024-04-08T05:46:27.657Z,98545.63
2024-04-08T05:47:29.206Z,98544.95
2024-04-08T05:48:31.145Z,98541.95
2024-04-08T05:49:32.656Z,98540.55
2024-04-08T05:50:34.804Z,98537.91
2024-04-08T05:51:36.386Z,98539.48
2024-04-08T05:52:37.873Z,98542.48
2024-04-08T05:53:39.529Z,98542.25
2024-04-08T05:54:41.156Z,98541.05
2024-04-08T05:55:42.960Z,98544.00
2024-04-08T05:56:44.479Z,98548.30
2024-04-08T05:57:46.253Z,98545.81
2024-04-08T05:58:47.856Z,98548.50
2024-04-08T05:59:49.565Z,98549.70
2024-04-08T06:00:51.083Z,98547.52
2024-04-08T06:01:52.620Z,98547.58
2024-04-08T06:02:55.072Z,98542.50
2024-04-08T06:03:56.663Z,98543.56
2024-04-08T06:04:58.516Z,98546.10
2024-04-08T06:06:00.265Z,98543.27
2024-04-08T06:07:02.047Z,98543.77
2024-04-08T06:08:03.819Z,98543.55
2024-04-08T06:09:08.757Z,98545.66
2024-04-08T06:10:10.534Z,98548.61
2024-04-08T06:11:12.103Z,98544.50
2024-04-08T06:12:13.618Z,98547.48
2024-04-08T06:13:15.201Z,98544.11
2024-04-08T06:14:16.955Z,98548.81
2024-04-08T06:15:18.523Z,98549.48
2024-04-08T06:16:20.055Z,98547.98
2024-04-08T06:17:22.296Z,98548.92
2024-04-08T06:18:24.134Z,98552.46
2024-04-08T06:19:25.845Z,98554.55
2024-04-08T06:20:27.926Z,98552.12
2024-04-08T06:21:29.518Z,98550.90
2024-04-08T06:22:31.553Z,98548.38
2024-04-08T06:23:33.073Z,98553.49
2024-04-08T06:24:34.795Z,98548.41
2024-04-08T06:25:36.356Z,98546.61
2024-04-08T06:26:38.446Z,98542.90
2024-04-08T06:27:39.997Z,98542.85
2024-04-08T06:28:41.499Z,98543.45
2024-04-08T06:29:43.676Z,98540.39
2024-04-08T06:30:45.153Z,98544.34
2024-04-08T06:31:46.732Z,98540.03
2024-04-08T06:32:49.727Z,98541.32
2024-04-08T06:33:51.256Z,98543.79
2024-04-08T06:34:52.817Z,98542.02
2024-04-08T06:35:54.317Z,98544.22
2024-04-08T06:36:55.808Z,98545.76
2024-04-08T06:37:57.431Z,98547.08
2024-04-08T06:38:59.209Z,98550.42
2024-04-08T06:40:00.803Z,98551.46
2024-04-08T06:41:02.883Z,98548.58
2024-04-08T06:42:04.724Z,98546.84
2024-04-08T06:43:06.442Z,98544.98
2024-04-08T06:44:07.943Z,98546.66
2024-04-08T06:45:09.993Z,98547.20
2024-04-08T06:46:11.537Z,98549.41
2024-04-08T06:47:13.054Z,98551.77
2024-04-08T06:48:14.665Z,98553.86
2024-04-08T06:49:16.232Z,98554.45
2024-04-08T06:50:17.839Z,98552.11
2024-04-08T06:51:19.401Z,98552.25
2024-04-08T06:52:20.897Z,98552.36
2024-04-08T06:53:22.663Z,98549.62
2024-04-08T06:54:24.180Z,98554.65
2024-04-08T06:55:26.155Z,98549.98
2024-04-08T06:56:27.769Z,98549.25
2024-04-08T06:57:29.329Z,98549.00
2024-04-08T06:58:31.308Z,98548.59
2024-04-08T06:59:32.807Z,98546.38
2024-04-08T07:00:34.411Z,98545.88
2024-04-08T07:01:35.908Z,98547.11
2024-04-08T07:02:37.519Z,98546.21
2024-04-08T07:03:39.021Z,98546.61
2024-04-08T07:04:41.467Z,98544.88
2024-04-08T07:05:46.065Z,98549.48
2024-04-08T07:06:47.610Z,98553.16
2024-04-08T07:07:49.103Z,98548.89
2024-04-08T07:08:50.909Z,98552.23
2024-04-08T07:09:52.439Z,98549.05
2024-04-08T07:10:54.193Z,98550.59
2024-04-08T07:11:59.335Z,98549.84
2024-04-08T07:13:00.965Z,98553.60
2024-04-08T07:14:02.525Z,98549.41
2024-04-08T07:15:04.733Z,98548.39
2024-04-08T07:16:07.252Z,98545.98
2024-04-08T07:17:08.879Z,98541.59
2024-04-08T07:18:10.839Z,98552.84
2024-04-08T07:19:12.359Z,98544.38
2024-04-08T07:20:13.947Z,98545.30
2024-04-08T07:21:15.527Z,98545.92
2024-04-08T07:22:17.118Z,98546.75
2024-04-08T07:23:18.796Z,98544.67
2024-04-08T07:24:20.305Z,98550.36
2024-04-08T07:25:22.102Z,98543.14
2024-04-08T07:26:23.807Z,98546.09
2024-04-08T07:27:25.318Z,98543.88
2024-04-08T07:28:26.845Z,98543.02
2024-04-08T07:29:28.327Z,98544.34
2024-04-08T07:30:30.873Z,98541.54
2024-04-08T07:31:32.893Z,98546.71
2024-04-08T07:32:34.529Z,98547.64
2024-04-08T07:33:36.133Z,98552.23
2024-04-08T07:34:37.653Z,98554.56
2024-04-08T07:35:40.022Z,98551.23
2024-04-08T07:36:41.655Z,98546.95
2024-04-08T07:37:43.338Z,98546.40
2024-04-08T07:38:56.853Z,98538.71
2024-04-08T07:40:03.491Z,98543.06
2024-04-08T07:41:05.012Z,98535.88
2024-04-08T07:42:07.358Z,98537.56
2024-04-08T07:43:09.006Z,98532.27
2024-04-08T07:44:10.867Z,98528.52
2024-04-08T07:45:12.871Z,98531.85
2024-04-08T07:46:15.392Z,98526.94
2024-04-08T07:47:17.351Z,98526.07
2024-04-08T07:48:20.303Z,98522.24
2024-04-08T07:49:22.679Z,98519.23
2024-04-08T07:50:24.264Z,98523.13
2024-04-08T07:51:25.775Z,98517.36
2024-04-08T07:52:27.469Z,98520.20
2024-04-08T07:53:29.095Z,98525.15
2024-04-08T07:54:30.724Z,98520.57
2024-04-08T07:55:32.322Z,98511.89
2024-04-08T07:56:34.076Z,98513.13
2024-04-08T07:57:35.743Z,98508.41
2024-04-08T07:58:37.411Z,98507.14
2024-04-08T07:59:39.080Z,98507.69
2024-04-08T08:00:46.251Z,98507.08
2024-04-08T08:01:52.059Z,98509.37
2024-04-08T08:02:53.710Z,98508.30
2024-04-08T08:03:55.314Z,98516.17
2024-04-08T08:04:57.002Z,98520.27
2024-04-08T08:06:00.799Z,98519.42
2024-04-08T08:07:04.854Z,98515.35
2024-04-08T08:08:06.644Z,98517.33
2024-04-08T08:09:08.551Z,98524.33
2024-04-08T08:10:10.507Z,98516.71
2024-04-08T08:11:12.697Z,98514.70
2024-04-08T08:12:14.318Z,98522.05
2024-04-08T08:13:15.846Z,98526.61
2024-04-08T08:14:17.358Z,98519.77
2024-04-08T08:15:19.255Z,98520.17
2024-04-08T08:16:20.819Z,98525.55
2024-04-08T08:17:26.621Z,98523.80
2024-04-08T08:18:29.715Z,98525.20
2024-04-08T08:19:31.289Z,98524.73
2024-04-08T08:20:34.226Z,98524.80
2024-04-08T08:21:35.753Z,98524.92
2024-04-08T08:22:37.316Z,98528.52
2024-04-08T08:23:38.941Z,98531.39
2024-04-08T08:24:40.447Z,98524.77
2024-04-08T08:25:41.959Z,98530.41
2024-04-08T08:26:44.039Z,98527.04
2024-04-08T08:27:45.551Z,98529.54
2024-04-08T08:28:47.559Z,98530.04
2024-04-08T08:29:51.302Z,98534.05
2024-04-08T08:30:53.599Z,98538.78
2024-04-08T08:31:56.654Z,98533.41
2024-04-08T08:32:59.547Z,98542.39
2024-04-08T08:34:01.472Z,98535.27
2024-04-08T08:35:04.424Z,98538.04
2024-04-08T08:36:06.673Z,98539.96
2024-04-08T08:37:09.544Z,98543.04
2024-04-08T08:38:11.076Z,98539.86
2024-04-08T08:39:12.790Z,98540.31
2024-04-08T08:40:17.706Z,98545.60
2024-04-08T08:41:23.775Z,98540.67
2024-04-08T08:42:29.478Z,98538.09
2024-04-08T08:43:32.220Z,98541.23
2024-04-08T08:44:35.055Z,98539.36
2024-04-08T08:45:41.682Z,98538.38
2024-04-08T08:46:44.402Z,98534.80
2024-04-08T08:47:46.539Z,98536.35
2024-04-08T08:48:50.799Z,98533.30
2024-04-08T08:49:54.367Z,98538.58
2024-04-08T08:50:59.134Z,98534.56
2024-04-08T08:52:04.689Z,98535.15
2024-04-08T08:53:10.020Z,98535.75
2024-04-08T08:54:11.628Z,98528.05
2024-04-08T08:55:13.385Z,98525.19
2024-04-08T08:56:18.185Z,98526.02
2024-04-08T08:57:19.982Z,98522.03
2024-04-08T08:58:22.140Z,98521.53
2024-04-08T08:59:24.044Z,98521.90
2024-04-08T09:00:25.730Z,98524.91
2024-04-08T09:01:27.572Z,98517.70
2024-04-08T09:02:31.292Z,98520.89
2024-04-08T09:03:34.097Z,98526.91
2024-04-08T09:04:36.041Z,98522.84
2024-04-08T09:05:37.650Z,98519.09
2024-04-08T09:06:54.523Z,98522.85
2024-04-08T09:07:56.110Z,98516.02
2024-04-08T09:08:57.839Z,98507.34
2024-04-08T09:10:00.502Z,98514.17
2024-04-08T09:11:07.326Z,98516.61
2024-04-08T09:12:12.056Z,98511.84
2024-04-08T09:13:26.904Z,98515.88
2024-04-08T09:14:30.162Z,98512.15
2024-04-08T09:15:31.789Z,98511.06
2024-04-08T09:16:33.470Z,98511.14
2024-04-08T09:17:35.082Z,98509.58
2024-04-08T09:18:36.641Z,98512.11
2024-04-08T09:19:38.211Z,98516.30
2024-04-08T09:20:40.126Z,98512.61
2024-04-08T09:21:42.684Z,98499.77
2024-04-08T09:22:44.500Z,98508.65
2024-04-08T09:23:48.944Z,98509.95
2024-04-08T09:24:51.206Z,98511.28
2024-04-08T09:25:52.847Z,98504.27
2024-04-08T09:26:55.122Z,98507.82
2024-04-08T09:27:57.027Z,98507.00
2024-04-08T09:28:59.579Z,98512.77
2024-04-08T09:30:01.554Z,98511.04
2024-04-08T09:31:03.376Z,98509.75
2024-04-08T09:32:08.609Z,98504.20
2024-04-08T09:33:12.190Z,98513.47
2024-04-08T09:34:13.952Z,98514.83
2024-04-08T09:35:15.620Z,98509.26
2024-04-08T09:36:17.791Z,98507.38
2024-04-08T09:37:22.787Z,98505.94
2024-04-08T09:38:25.031Z,98506.70
2024-04-08T09:39:29.543Z,98506.67
2024-04-08T09:40:32.165Z,98509.40
2024-04-08T09:41:38.723Z,98506.77
2024-04-08T09:42:41.728Z,98505.89
2024-04-08T09:43:45.723Z,98501.45
2024-04-08T09:44:47.997Z,98501.62
2024-04-08T09:45:49.840Z,98496.87
2024-04-08T09:46:52.055Z,98498.41
2024-04-08T09:47:54.937Z,98499.07
2024-04-08T09:49:00.109Z,98501.51
2024-04-08T09:50:05.806Z,98491.17
2024-04-08T09:51:08.873Z,98499.25
2024-04-08T09:52:12.803Z,98497.27
2024-04-08T09:53:14.317Z,98494.27
2024-04-08T09:54:16.102Z,98497.33
2024-04-08T09:55:18.333Z,98494.12
2024-04-08T09:56:22.370Z,98500.73
2024-04-08T09:57:26.556Z,98498.02
2024-04-08T09:58:33.637Z,98501.75
2024-04-08T09:59:36.488Z,98500.66
2024-04-08T10:00:43.326Z,98503.24
2024-04-08T10:01:45.612Z,98504.95
2024-04-08T10:02:53.622Z,98503.20
2024-04-08T10:04:00.342Z,98502.55
2024-04-08T10:05:05.156Z,98502.23
2024-04-08T10:06:10.757Z,98504.48
2024-04-08T10:07:12.755Z,98502.90
2024-04-08T10:08:14.489Z,98501.54
2024-04-08T10:09:21.294Z,98498.13
2024-04-08T10:10:25.122Z,98495.20
2024-04-08T10:11:26.742Z,98498.63
2024-04-08T10:12:32.403Z,98504.57
2024-04-08T10:13:47.571Z,98496.23
2024-04-08T10:14:49.256Z,98498.27
2024-04-08T10:15:52.439Z,98494.75
2024-04-08T10:16:54.171Z,98494.29
2024-04-08T10:17:55.936Z,98497.27
2024-04-08T10:18:57.692Z,98490.92
2024-04-08T10:20:00.455Z,98491.92
2024-04-08T10:21:03.507Z,98481.84
2024-04-08T10:22:08.664Z,98478.98
2024-04-08T10:23:10.798Z,98481.73
2024-04-08T10:24:38.720Z,98481.45
2024-04-08T10:25:43.475Z,98477.70
2024-04-08T10:26:45.036Z,98479.36
2024-04-08T10:27:46.661Z,98480.16
2024-04-08T10:28:48.228Z,98484.24
2024-04-08T10:29:57.302Z,98480.07
2024-04-08T10:31:03.424Z,98478.89
2024-04-08T10:32:06.926Z,98480.36
2024-04-08T10:33:11.110Z,98478.13
2024-04-08T10:34:14.429Z,98478.64
2024-04-08T10:35:16.926Z,98477.64
2024-04-08T10:36:18.925Z,98475.39
2024-04-08T10:37:21.021Z,98471.52
2024-04-08T10:38:23.237Z,98469.86
2024-04-08T10:39:27.427Z,98468.80
2024-04-08T10:40:29.215Z,98467.96
2024-04-08T10:41:30.948Z,98470.81
2024-04-08T10:42:32.532Z,98464.57
2024-04-08T10:43:37.631Z,98465.75
2024-04-08T10:44:39.169Z,98467.55
2024-04-08T10:45:41.214Z,98470.39
2024-04-08T10:46:43.678Z,98461.65
2024-04-08T10:47:46.151Z,98459.27
2024-04-08T10:48:48.996Z,98464.88
2024-04-08T10:49:50.625Z,98462.41
2024-04-08T10:50:52.221Z,98465.40
2024-04-08T10:51:54.508Z,98458.92
2024-04-08T10:52:56.459Z,98459.98
2024-04-08T10:53:58.117Z,98456.51
2024-04-08T10:54:59.804Z,98456.86
2024-04-08T10:56:01.337Z,98458.39
2024-04-08T10:57:03.355Z,98454.68
2024-04-08T10:58:05.004Z,98458.80
2024-04-08T10:59:07.750Z,98459.20
2024-04-08T11:00:10.375Z,98453.95
2024-04-08T11:01:12.902Z,98454.08
2024-04-08T11:02:15.176Z,98451.58
2024-04-08T11:03:17.817Z,98455.89
2024-04-08T11:04:19.661Z,98455.79
2024-04-08T11:05:22.371Z,98456.97
2024-04-08T11:06:24.396Z,98455.35
2024-04-08T11:07:26.494Z,98449.08
2024-04-08T11:08:28.251Z,98452.18
2024-04-08T11:09:29.940Z,98448.09
2024-04-08T11:10:31.586Z,98447.83
2024-04-08T11:11:33.766Z,98448.46
2024-04-08T11:12:35.361Z,98451.38
2024-04-08T11:13:36.855Z,98448.14
2024-04-08T11:14:38.385Z,98448.79
2024-04-08T11:15:41.347Z,98449.65
2024-04-08T11:16:43.111Z,98451.60
2024-04-08T11:17:44.845Z,98441.54
2024-04-08T11:18:47.868Z,98447.52
2024-04-08T11:20:02.211Z,98443.63
2024-04-08T11:21:05.366Z,98447.28
2024-04-08T11:22:10.906Z,98445.96
2024-04-08T11:23:14.583Z,98446.12
2024-04-08T11:24:16.377Z,98446.59
2024-04-08T11:25:18.279Z,98446.67
2024-04-08T11:26:20.074Z,98447.83
2024-04-08T11:27:28.017Z,98449.15
2024-04-08T11:28:30.143Z,98443.36
2024-04-08T11:29:31.667Z,98446.56
2024-04-08T11:30:36.030Z,98439.14
2024-04-08T11:31:38.451Z,98443.66
2024-04-08T11:32:40.406Z,98440.86
2024-04-08T11:33:42.245Z,98438.27
2024-04-08T11:34:44.232Z,98438.42
2024-04-08T11:35:45.763Z,98447.24
2024-04-08T11:36:47.275Z,98448.71
2024-04-08T11:37:48.847Z,98440.00
2024-04-08T11:38:50.717Z,98440.90
2024-04-08T11:39:52.828Z,98436.38
2024-04-08T11:40:55.143Z,98435.10
2024-04-08T11:41:56.820Z,98438.50
2024-04-08T11:42:58.632Z,98439.12
2024-04-08T11:44:00.427Z,98436.89
2024-04-08T11:45:07.915Z,98430.50
2024-04-08T11:46:12.485Z,98431.95
2024-04-08T11:47:18.194Z,98430.30
2024-04-08T11:48:21.759Z,98428.03
2024-04-08T11:49:23.352Z,98428.59
2024-04-08T11:50:25.373Z,98426.21
2024-04-08T11:51:27.017Z,98430.20
2024-04-08T11:52:28.739Z,98427.95
2024-04-08T11:53:30.289Z,98425.60
2024-04-08T11:54:42.170Z,98426.55
2024-04-08T11:55:53.573Z,98425.00
2024-04-08T11:56:55.624Z,98428.63
2024-04-08T11:57:57.152Z,98429.32
2024-04-08T11:58:58.759Z,98427.52
2024-04-08T12:00:01.016Z,98426.23
2024-04-08T12:01:05.105Z,98426.34
2024-04-08T12:02:08.127Z,98417.45
2024-04-08T12:03:09.728Z,98420.93
2024-04-08T12:04:11.528Z,98419.85
2024-04-08T12:05:13.080Z,98414.67
2024-04-08T12:06:15.716Z,98417.63
2024-04-08T12:07:17.296Z,98416.05
2024-04-08T12:08:18.963Z,98417.91
2024-04-08T12:09:20.514Z,98415.36
2024-04-08T12:10:22.147Z,98419.47
2024-04-08T12:11:24.306Z,98420.45
2024-04-08T12:12:25.837Z,98421.52
2024-04-08T12:13:27.354Z,98419.66